Time;durP1;ratioP1;P1;durP2;ratioP2;P2;SDS_P1;SDS_P2;PMS_P1;PMS_P2;Temp;Humidity;BMP_temperature;BMP_pressure;BME280_temperature;BME280_humidity;BME280_pressure;Samples;Min_cycle;Max_cycle;Signal;HPM_P1;HPM_P2
2022/07/15 00:01:53;;;;;;;;;;;;;;;19.29;51.13;99331.97;4974470;28;20009;-93
2022/07/15 00:04:19;;;;;;;;;;;;;;;19.26;51.11;99330.72;4974350;28;20005;-93
2022/07/15 00:06:44;;;;;;;;;;;;;;;19.21;51.50;99327.34;4958033;28;19914;-92
2022/07/15 00:09:09;;;;;;;;;;;;;;;19.20;51.70;99325.78;4957642;28;19914;-93
2022/07/15 00:11:35;;;;;;;;;;;;;;;19.22;51.58;99326.25;4957737;28;19934;-93
2022/07/15 00:14:00;;;;;;;;;;;;;;;19.18;51.51;99329.63;4958044;28;20001;-92
2022/07/15 00:16:26;;;;;;;;;;;;;;;19.13;51.66;99327.06;4957906;28;20369;-92
2022/07/15 00:18:51;;;;;;;;;;;;;;;19.09;51.80;99326.13;4957627;28;19914;-93
2022/07/15 00:21:16;;;;;;;;;;;;;;;19.02;51.98;99331.28;4958322;28;20388;-93
2022/07/15 00:23:42;;;;;;;;;;;;;;;18.98;52.20;99327.59;4958027;28;19925;-92
2022/07/15 00:26:07;;;;;;;;;;;;;;;18.95;52.41;99330.97;4958579;28;20169;-94
2022/07/15 00:28:32;;;;;;;;;;;;;;;18.87;52.87;99329.88;4960109;28;19945;-93
2022/07/15 00:30:58;;;;;;;;;;;;;;;18.91;52.65;99330.03;4959291;28;19918;-92
2022/07/15 00:33:23;;;;;;;;;;;;;;;18.93;52.24;99325.06;4974934;28;19914;-93
2022/07/15 00:35:49;;;;;;;;;;;;;;;18.94;52.06;99321.97;4957733;28;20008;-92
2022/07/15 00:38:14;;;;;;;;;;;;;;;18.89;52.73;99327.63;4949822;28;19957;-92
2022/07/15 00:40:40;;;;;;;;;;;;;;;18.93;52.13;99327.78;4958293;28;20292;-92
2022/07/15 00:43:05;;;;;;;;;;;;;;;18.89;52.16;99326.81;4957692;28;20443;-92
2022/07/15 00:45:31;;;;;;;;;;;;;;;18.89;52.20;99324.09;4957436;28;19914;-93
2022/07/15 00:47:56;;;;;;;;;;;;;;;18.84;52.85;99318.78;4958036;28;19973;-93
2022/07/15 00:50:22;;;;;;;;;;;;;;;18.85;52.95;99317.69;4958223;28;19921;-92
2022/07/15 00:53:14;;;;;;;;;;;;;;;18.80;52.74;99323.31;4957581;28;19926;-94
2022/07/15 00:55:40;;;;;;;;;;;;;;;18.76;52.02;99306.78;4970009;28;19914;-95
2022/07/15 00:58:06;;;;;;;;;;;;;;;18.89;51.15;99313.97;4958245;28;19914;-94
2022/07/15 01:00:31;;;;;;;;;;;;;;;18.96;51.09;99305.28;4958661;28;19921;-94
2022/07/15 01:02:57;;;;;;;;;;;;;;;18.86;52.46;99308.38;4958569;28;19918;-94
2022/07/15 01:05:22;;;;;;;;;;;;;;;18.73;53.04;99305.47;4957274;28;19961;-94
2022/07/15 01:07:49;;;;;;;;;;;;;;;18.73;52.79;99313.66;4957307;28;20299;-93
2022/07/15 01:10:15;;;;;;;;;;;;;;;18.64;52.67;99303.91;4957480;28;19924;-93
2022/07/15 01:12:40;;;;;;;;;;;;;;;18.53;53.36;99303.41;4957974;28;20408;-93
2022/07/15 01:15:06;;;;;;;;;;;;;;;18.54;53.57;99305.03;4957108;28;19914;-93
2022/07/15 01:17:31;;;;;;;;;;;;;;;18.49;53.21;99305.19;4957119;28;19981;-95
2022/07/15 01:19:57;;;;;;;;;;;;;;;18.52;52.84;99296.38;4958329;28;19914;-94
2022/07/15 01:22:22;;;;;;;;;;;;;;;18.64;51.49;99293.78;4957051;28;20004;-94
2022/07/15 01:24:48;;;;;;;;;;;;;;;18.78;50.96;99304.53;4957047;28;19934;-94
2022/07/15 01:27:13;;;;;;;;;;;;;;;18.85;50.45;99288.47;4957353;28;20368;-94
2022/07/15 01:29:38;;;;;;;;;;;;;;;18.81;51.12;99292.19;4957700;28;19914;-93
2022/07/15 01:32:04;;;;;;;;;;;;;;;18.71;51.48;99285.91;4959253;28;19922;-94
2022/07/15 01:34:29;;;;;;;;;;;;;;;18.65;51.80;99287.19;4961861;28;20020;-93
2022/07/15 01:36:54;;;;;;;;;;;;;;;18.58;51.92;99282.25;4960981;28;19914;-94
2022/07/15 01:39:19;;;;;;;;;;;;;;;18.53;52.13;99279.69;4960468;28;19914;-94
2022/07/15 01:41:45;;;;;;;;;;;;;;;18.50;52.46;99285.00;4960575;28;19922;-94
2022/07/15 01:44:11;;;;;;;;;;;;;;;18.50;52.72;99282.28;4960915;28;20427;-94
2022/07/15 01:46:36;;;;;;;;;;;;;;;18.44;52.71;99289.00;4960439;28;19921;-93
2022/07/15 01:51:46;;;;;;;;;;;;;;;18.25;52.83;99281.19;4976862;28;19976;-94
2022/07/15 01:54:11;;;;;;;;;;;;;;;18.22;53.23;99277.19;4960598;28;20350;-93
2022/07/15 01:56:36;;;;;;;;;;;;;;;18.16;53.27;99281.97;4959710;28;19957;-93
2022/07/15 01:59:02;;;;;;;;;;;;;;;18.09;53.84;99272.69;4960180;28;19973;-94
2022/07/15 02:01:27;;;;;;;;;;;;;;;18.03;53.67;99280.19;4960111;28;19915;-94
2022/07/15 02:03:53;;;;;;;;;;;;;;;18.01;54.04;99276.19;4960139;28;20020;-94
2022/07/15 02:06:20;;;;;;;;;;;;;;;17.98;54.33;99283.09;4960122;28;19981;-93
2022/07/15 02:08:46;;;;;;;;;;;;;;;17.95;54.10;99279.09;4976333;28;19914;-93
2022/07/15 02:11:12;;;;;;;;;;;;;;;18.03;53.75;99280.19;4959649;28;19921;-93
2022/07/15 02:13:38;;;;;;;;;;;;;;;18.09;53.22;99276.19;4975459;28;19925;-94
2022/07/15 02:16:05;;;;;;;;;;;;;;;18.24;52.14;99274.94;4960223;28;19914;-93
2022/07/15 02:18:31;;;;;;;;;;;;;;;18.33;52.14;99283.88;4976385;28;19914;-93
2022/07/15 02:20:56;;;;;;;;;;;;;;;18.40;51.63;99282.59;4960436;28;20390;-93
2022/07/15 02:23:21;;;;;;;;;;;;;;;18.28;52.18;99275.88;4960163;28;19941;-93
2022/07/15 02:25:47;;;;;;;;;;;;;;;18.16;53.05;99278.47;4960594;28;19969;-92
2022/07/15 02:28:13;;;;;;;;;;;;;;;18.03;53.03;99293.03;4977851;28;20363;-93
2022/07/15 02:30:41;;;;;;;;;;;;;;;18.00;53.34;99291.75;4976506;28;19918;-93
2022/07/15 02:33:07;;;;;;;;;;;;;;;17.98;53.61;99294.00;4960209;28;19936;-93
2022/07/15 02:35:32;;;;;;;;;;;;;;;18.00;54.00;99293.69;4975912;28;19914;-92
2022/07/15 02:37:59;;;;;;;;;;;;;;;17.92;54.45;99296.06;4977439;28;19918;-94
2022/07/15 02:40:24;;;;;;;;;;;;;;;17.79;54.86;99297.00;4961165;28;19937;-93
2022/07/15 02:42:50;;;;;;;;;;;;;;;17.74;55.12;99299.84;4960384;28;19918;-93
2022/07/15 02:45:17;;;;;;;;;;;;;;;17.73;55.35;99293.63;4976905;28;19914;-92
2022/07/15 02:47:42;;;;;;;;;;;;;;;17.72;55.45;99305.63;4959853;28;19958;-93
2022/07/15 02:50:08;;;;;;;;;;;;;;;17.66;55.03;99300.63;4960214;28;19918;-93
2022/07/15 02:52:33;;;;;;;;;;;;;;;17.67;55.05;99299.53;4959939;28;19926;-93
2022/07/15 02:54:58;;;;;;;;;;;;;;;17.64;55.16;99300.16;4959507;28;19949;-93
2022/07/15 02:57:24;;;;;;;;;;;;;;;17.57;55.57;99306.06;4959655;28;20308;-94
2022/07/15 02:59:49;;;;;;;;;;;;;;;17.55;55.86;99298.22;4975860;28;19922;-93
2022/07/15 03:02:15;;;;;;;;;;;;;;;17.51;55.61;99299.97;4959255;28;19918;-93
2022/07/15 03:04:42;;;;;;;;;;;;;;;17.56;54.95;99304.47;4959620;28;19977;-93
2022/07/15 03:07:08;;;;;;;;;;;;;;;17.54;54.79;99295.81;4975247;28;19914;-93
2022/07/15 03:09:33;;;;;;;;;;;;;;;17.51;55.21;99297.25;4974730;28;19914;-93
2022/07/15 03:11:59;;;;;;;;;;;;;;;17.55;54.82;99295.50;4959247;28;19921;-93
2022/07/15 03:14:25;;;;;;;;;;;;;;;17.51;55.34;99301.88;4974164;28;19914;-93
2022/07/15 03:16:51;;;;;;;;;;;;;;;17.58;54.84;99294.88;4959842;28;19972;-93
2022/07/15 03:19:16;;;;;;;;;;;;;;;17.66;54.72;99298.75;4959350;28;20000;-94
2022/07/15 03:21:42;;;;;;;;;;;;;;;17.63;54.18;99302.06;4974989;28;19968;-95
2022/07/15 03:24:07;;;;;;;;;;;;;;;17.67;54.31;99300.31;4975677;28;20508;-95
2022/07/15 03:26:33;;;;;;;;;;;;;;;17.73;54.25;99298.25;4978260;28;19918;-91
2022/07/15 03:29:00;;;;;;;;;;;;;;;17.73;54.30;99303.72;4975102;28;19918;-95
2022/07/15 03:31:28;;;;;;;;;;;;;;;17.72;53.65;99302.91;4975472;28;19921;-95
2022/07/15 03:33:55;;;;;;;;;;;;;;;17.68;53.64;99295.69;4973568;28;19958;-95
2022/07/15 03:36:20;;;;;;;;;;;;;;;17.80;53.17;99300.50;4974330;28;19981;-94
2022/07/15 03:38:45;;;;;;;;;;;;;;;17.81;53.07;99300.19;4974475;28;19918;-94
2022/07/15 03:41:11;;;;;;;;;;;;;;;17.82;53.17;99293.63;4974525;28;19922;-95
2022/07/15 03:43:37;;;;;;;;;;;;;;;17.80;53.73;99304.03;4974435;28;19918;-96
2022/07/15 03:46:02;;;;;;;;;;;;;;;17.61;54.72;99298.88;4990705;28;19914;-94
2022/07/15 03:48:27;;;;;;;;;;;;;;;17.60;54.35;99304.63;4974524;28;19921;-95
2022/07/15 03:50:53;;;;;;;;;;;;;;;17.42;55.24;99298.34;4974153;28;19914;-96
2022/07/15 03:53:19;;;;;;;;;;;;;;;17.53;55.06;99289.56;4974600;28;19926;-95
2022/07/15 03:55:46;;;;;;;;;;;;;;;17.52;54.91;99296.13;4973891;28;19914;-94
2022/07/15 03:58:11;;;;;;;;;;;;;;;17.47;55.49;99296.28;4974243;28;19914;-94
2022/07/15 04:00:36;;;;;;;;;;;;;;;17.53;55.00;99295.00;4973651;28;19924;-94
2022/07/15 04:03:02;;;;;;;;;;;;;;;17.51;55.76;99296.44;4974818;28;19976;-94
2022/07/15 04:05:28;;;;;;;;;;;;;;;17.66;54.85;99300.63;4990535;28;19914;-93
2022/07/15 04:07:53;;;;;;;;;;;;;;;17.65;54.76;99304.50;4985772;28;19918;-93
2022/07/15 04:10:21;;;;;;;;;;;;;;;17.65;54.02;99304.50;4974017;28;19914;-94
2022/07/15 04:12:48;;;;;;;;;;;;;;;17.73;53.88;99301.78;4993758;28;19914;-96
2022/07/15 04:15:17;;;;;;;;;;;;;;;17.89;53.11;99302.16;4977042;28;22513;-95
2022/07/15 04:17:42;;;;;;;;;;;;;;;18.08;52.36;99298.34;4970876;28;20308;-93
2022/07/15 04:20:09;;;;;;;;;;;;;;;18.14;52.39;99305.22;5009123;28;19918;-94
2022/07/15 04:22:38;;;;;;;;;;;;;;;18.01;53.40;99304.25;4993947;28;19918;-94
2022/07/15 04:25:06;;;;;;;;;;;;;;;17.96;54.20;99301.69;4993677;28;19962;-93
2022/07/15 04:27:31;;;;;;;;;;;;;;;17.92;54.04;99301.50;4968826;28;19914;-94
2022/07/15 04:29:58;;;;;;;;;;;;;;;18.02;53.95;99310.50;4957994;28;20443;-95
2022/07/15 04:32:26;;;;;;;;;;;;;;;18.00;53.56;99301.84;4976148;28;19914;-93
2022/07/15 04:34:52;;;;;;;;;;;;;;;18.10;53.01;99313.25;4995042;28;20005;-95
2022/07/15 04:37:18;;;;;;;;;;;;;;;18.07;52.82;99308.41;4977819;28;19992;-95
2022/07/15 04:39:43;;;;;;;;;;;;;;;18.21;53.04;99293.84;4979477;28;20376;-95
2022/07/15 04:42:08;;;;;;;;;;;;;;;18.35;52.53;99302.66;4977885;28;19922;-95
2022/07/15 04:44:33;;;;;;;;;;;;;;;18.40;52.75;99302.47;4977852;28;20383;-95
2022/07/15 04:46:59;;;;;;;;;;;;;;;18.46;52.51;99301.19;4977729;28;19917;-96
2022/07/15 04:52:08;;;;;;;;;;;;;;;18.60;52.91;99306.47;4994362;28;20021;-96
2022/07/15 04:54:34;;;;;;;;;;;;;;;18.66;52.69;99307.13;4974129;28;19965;-95
2022/07/15 04:56:59;;;;;;;;;;;;;;;18.74;51.94;99295.38;4972498;28;19918;-93
2022/07/15 04:59:32;;;;;;;;;;;;;;;18.79;51.73;99297.94;4975506;28;19914;-94
2022/07/15 05:01:58;;;;;;;;;;;;;;;18.86;51.20;99300.97;4977717;28;19918;-96
2022/07/15 05:04:23;;;;;;;;;;;;;;;19.00;50.68;99300.78;5135237;23;19927;-96
2022/07/15 05:06:50;;;;;;;;;;;;;;;19.12;50.84;99295.44;4970803;28;19922;-96
2022/07/15 05:09:44;;;;;;;;;;;;;;;19.29;50.64;99293.75;4965691;29;19914;-96
2022/07/15 05:12:27;;;;;;;;;;;;;;;19.43;49.32;99296.28;4974955;28;19914;-94
2022/07/15 05:15:01;;;;;;;;;;;;;;;19.56;49.66;99301.47;4963856;28;19925;-96
2022/07/15 05:17:27;;;;;;;;;;;;;;;19.67;48.69;99301.09;4967826;28;19942;-91
2022/07/15 05:19:56;;;;;;;;;;;;;;;19.78;48.40;99296.91;4990317;28;19926;-91
2022/07/15 05:22:25;;;;;;;;;;;;;;;19.90;48.36;99298.88;4985632;28;19925;-96
2022/07/15 05:24:50;;;;;;;;;;;;;;;19.99;47.74;99294.16;4986496;28;19914;-94
2022/07/15 05:27:17;;;;;;;;;;;;;;;20.09;47.77;99296.50;4980897;28;20339;-93
2022/07/15 05:29:44;;;;;;;;;;;;;;;20.21;47.30;99294.97;4978211;28;19918;-93
2022/07/15 05:32:10;;;;;;;;;;;;;;;20.30;47.28;99301.97;4979770;28;19918;-93
2022/07/15 05:34:41;;;;;;;;;;;;;;;20.37;47.72;99293.22;4980438;28;20009;-93
2022/07/15 05:37:07;;;;;;;;;;;;;;;20.52;47.41;99291.78;4980492;28;19914;-94
2022/07/15 05:39:32;;;;;;;;;;;;;;;20.67;46.91;99293.09;4979357;28;19918;-93
2022/07/15 05:42:00;;;;;;;;;;;;;;;20.72;47.18;99292.91;4978163;28;20443;-92
2022/07/15 05:44:48;;;;;;;;;;;;;;;20.79;46.71;99285.75;4983250;28;19917;-96
2022/07/15 05:48:12;;;;;;;;;;;;;;;20.97;46.56;99289.06;4973368;28;19926;-96
2022/07/15 05:53:54;;;;;;;;;;;;;;;21.16;46.29;99282.25;4926146;29;19914;-95
2022/07/15 05:56:25;;;;;;;;;;;;;;;21.24;45.75;99284.06;4946284;29;19914;-96
2022/07/15 05:59:03;;;;;;;;;;;;;;;21.38;46.06;99284.53;4950363;29;19921;-96
2022/07/15 06:01:40;;;;;;;;;;;;;;;21.59;46.11;99278.16;4949647;29;19915;-94
2022/07/15 06:04:13;;;;;;;;;;;;;;;21.72;45.38;99287.16;4945687;29;19966;-96
2022/07/15 06:06:39;;;;;;;;;;;;;;;21.96;45.13;99289.06;4945437;29;19915;-92
2022/07/15 06:09:07;;;;;;;;;;;;;;;22.05;44.57;99286.16;4940404;29;20068;-93
2022/07/15 06:11:35;;;;;;;;;;;;;;;22.20;43.62;99288.16;4924989;29;19927;-92
2022/07/15 06:14:00;;;;;;;;;;;;;;;22.27;43.34;99280.19;4918281;29;20412;-90
2022/07/15 06:16:25;;;;;;;;;;;;;;;22.37;42.23;99287.91;4958579;28;19902;-90
2022/07/15 06:18:51;;;;;;;;;;;;;;;22.55;41.97;99279.38;4957698;28;19920;-93
2022/07/15 06:21:16;;;;;;;;;;;;;;;22.72;41.90;99279.06;4963339;28;19916;-93
2022/07/15 06:23:42;;;;;;;;;;;;;;;22.87;41.76;99271.97;4964438;28;19988;-91
2022/07/15 06:26:07;;;;;;;;;;;;;;;23.00;42.30;99272.69;4977920;28;19933;-90
2022/07/15 06:28:33;;;;;;;;;;;;;;;23.11;42.05;99271.03;4960835;28;20384;-91
2022/07/15 06:30:58;;;;;;;;;;;;;;;23.23;41.69;99274.84;4962938;28;20369;-89
2022/07/15 06:33:24;;;;;;;;;;;;;;;23.29;41.21;99279.69;4941037;29;19977;-91
2022/07/15 06:35:52;;;;;;;;;;;;;;;23.49;40.12;99266.84;4951516;28;20068;-89
2022/07/15 06:38:17;;;;;;;;;;;;;;;23.63;40.64;99269.09;4950744;29;20404;-89
2022/07/15 06:40:43;;;;;;;;;;;;;;;23.79;39.99;99267.13;4942327;29;19915;-91
2022/07/15 06:43:08;;;;;;;;;;;;;;;23.96;39.67;99271.41;4923743;29;20012;-89
2022/07/15 06:45:43;;;;;;;;;;;;;;;24.07;38.92;99259.81;4954433;29;19931;-89
2022/07/15 06:48:08;;;;;;;;;;;;;;;24.17;39.43;99262.78;4955127;28;19965;-90
2022/07/15 06:50:34;;;;;;;;;;;;;;;24.28;38.93;99260.28;4959214;28;19914;-90
2022/07/15 06:53:01;;;;;;;;;;;;;;;24.45;38.36;99250.75;4959183;28;20376;-91
2022/07/15 06:55:29;;;;;;;;;;;;;;;24.59;37.36;99253.81;4959614;28;19918;-93
2022/07/15 06:57:54;;;;;;;;;;;;;;;24.72;37.95;99251.66;4979586;28;19973;-94
2022/07/15 07:00:20;;;;;;;;;;;;;;;24.79;37.79;99257.28;4962682;28;19914;-94
2022/07/15 07:02:46;;;;;;;;;;;;;;;24.96;37.26;99252.47;4960340;28;19990;-94
2022/07/15 07:05:12;;;;;;;;;;;;;;;25.09;36.42;99247.53;4978505;28;19921;-94
2022/07/15 07:07:37;;;;;;;;;;;;;;;25.27;36.26;99242.34;4964205;28;20434;-94
2022/07/15 07:10:03;;;;;;;;;;;;;;;25.34;36.85;99248.00;4955349;28;19914;-95
2022/07/15 07:12:28;;;;;;;;;;;;;;;25.44;37.21;99252.84;4944975;28;19914;-93
2022/07/15 07:14:54;;;;;;;;;;;;;;;25.55;35.13;99248.28;4944424;28;19937;-94
2022/07/15 07:17:19;;;;;;;;;;;;;;;25.68;35.77;99246.09;4944656;28;20296;-92
2022/07/15 07:19:45;;;;;;;;;;;;;;;25.83;35.37;99257.31;4959880;28;20407;-92
2022/07/15 07:22:10;;;;;;;;;;;;;;;25.90;35.14;99254.66;4975442;28;19937;-93
2022/07/15 07:24:35;;;;;;;;;;;;;;;26.04;35.43;99257.59;4975465;28;19926;-92
2022/07/15 07:27:01;;;;;;;;;;;;;;;26.15;35.57;99255.00;4975395;28;19914;-93
2022/07/15 07:29:26;;;;;;;;;;;;;;;26.36;35.20;99255.25;4975051;28;19914;-94
2022/07/15 07:31:51;;;;;;;;;;;;;;;26.47;34.37;99251.78;4976405;28;19918;-95
2022/07/15 07:34:17;;;;;;;;;;;;;;;26.62;33.20;99253.53;4975761;28;19914;-93
2022/07/15 07:36:46;;;;;;;;;;;;;;;26.71;33.03;99253.22;4964747;28;19906;-95
2022/07/15 07:39:47;;;;;;;;;;;;;;;26.76;32.28;99255.66;4988375;28;20029;-95
2022/07/15 07:42:13;;;;;;;;;;;;;;;26.83;32.55;99254.94;4944950;28;19918;-95
2022/07/15 07:44:38;;;;;;;;;;;;;;;26.91;31.78;99253.81;4981411;28;19941;-95
2022/07/15 07:47:06;;;;;;;;;;;;;;;26.98;30.62;99242.84;4983833;28;19914;-95
2022/07/15 07:49:31;;;;;;;;;;;;;;;27.11;31.10;99249.66;4964054;28;19969;-93
2022/07/15 07:51:59;;;;;;;;;;;;;;;27.21;30.94;99245.38;4976215;28;19918;-94
2022/07/15 07:54:29;;;;;;;;;;;;;;;27.38;29.29;99241.19;4953555;29;19918;-96
2022/07/15 07:57:04;;;;;;;;;;;;;;;27.54;28.90;99244.44;4926483;29;19914;-94
2022/07/15 07:59:31;;;;;;;;;;;;;;;27.69;28.74;99237.00;4929009;29;19921;-95
2022/07/15 08:01:58;;;;;;;;;;;;;;;27.79;28.00;99238.25;4925627;29;20369;-92
2022/07/15 08:04:53;;;;;;;;;;;;;;;27.90;28.35;99233.56;4936065;29;19954;-96
2022/07/15 08:07:19;;;;;;;;;;;;;;;28.01;28.64;99239.16;4961109;29;19914;-95
2022/07/15 08:09:49;;;;;;;;;;;;;;;28.15;28.02;99238.41;4964474;29;19914;-95
2022/07/15 08:12:15;;;;;;;;;;;;;;;28.30;26.74;99242.00;4955724;29;19915;-93
2022/07/15 08:14:41;;;;;;;;;;;;;;;28.40;25.85;99230.97;4940324;29;20009;-92
2022/07/15 08:17:10;;;;;;;;;;;;;;;28.49;25.45;99232.56;4956654;28;19923;-95
2022/07/15 08:19:35;;;;;;;;;;;;;;;28.54;25.42;99243.31;4956260;29;20356;-92
2022/07/15 08:22:01;;;;;;;;;;;;;;;28.64;25.63;99236.97;4956755;29;19957;-93
2022/07/15 08:24:26;;;;;;;;;;;;;;;28.68;26.81;99229.47;4970550;28;19977;-93
2022/07/15 08:26:52;;;;;;;;;;;;;;;28.73;26.29;99228.28;4955399;28;19981;-93
2022/07/15 08:29:17;;;;;;;;;;;;;;;28.94;26.28;99233.81;4960525;29;19914;-93
2022/07/15 08:31:43;;;;;;;;;;;;;;;29.08;25.51;99229.47;4954927;29;19921;-92
2022/07/15 08:34:08;;;;;;;;;;;;;;;29.18;24.89;99223.94;4956709;29;19961;-92
2022/07/15 08:36:34;;;;;;;;;;;;;;;29.30;24.12;99233.03;4954871;28;20421;-92
2022/07/15 08:38:59;;;;;;;;;;;;;;;29.39;24.10;99231.44;4955781;29;20273;-92
2022/07/15 08:41:24;;;;;;;;;;;;;;;29.50;23.97;99219.50;4974233;28;19914;-93
2022/07/15 08:43:50;;;;;;;;;;;;;;;29.60;23.62;99232.56;4960207;29;19929;-92
2022/07/15 08:46:21;;;;;;;;;;;;;;;29.65;23.91;99229.38;4961426;29;20085;-92
2022/07/15 08:48:53;;;;;;;;;;;;;;;29.68;23.19;99222.25;4960299;29;19915;-94
2022/07/15 08:51:22;;;;;;;;;;;;;;;29.72;23.56;99221.06;4961663;28;19914;-92
2022/07/15 08:53:51;;;;;;;;;;;;;;;29.79;23.88;99223.03;4971664;28;20009;-93
2022/07/15 08:56:20;;;;;;;;;;;;;;;29.87;23.93;99210.69;4963810;29;20373;-92
2022/07/15 08:58:46;;;;;;;;;;;;;;;30.00;23.31;99219.34;4943041;29;20009;-94
2022/07/15 09:01:31;;;;;;;;;;;;;;;30.02;23.76;99214.19;4977183;28;19950;-93
2022/07/15 09:04:15;;;;;;;;;;;;;;;30.15;23.95;99217.28;4940701;28;19923;-93
2022/07/15 09:09:48;;;;;;;;;;;;;;;30.26;22.58;99211.66;4934925;28;19921;-92
2022/07/15 09:12:23;;;;;;;;;;;;;;;30.38;23.21;99209.28;4974463;28;19914;-93
2022/07/15 09:14:57;;;;;;;;;;;;;;;30.46;22.80;99203.66;4959937;28;20010;-95
2022/07/15 09:17:23;;;;;;;;;;;;;;;30.49;22.82;99198.06;4957824;29;19919;-94
2022/07/15 09:20:08;;;;;;;;;;;;;;;30.59;23.15;99197.22;4974377;28;20056;-94
2022/07/15 09:22:55;;;;;;;;;;;;;;;30.59;22.96;99194.44;4958620;29;19919;-96
2022/07/15 09:25:53;;;;;;;;;;;;;;;30.58;22.91;99197.59;4962769;29;19923;-96
2022/07/15 09:28:21;;;;;;;;;;;;;;;30.63;22.23;99191.59;4963761;29;20393;-96
2022/07/15 09:33:36;;;;;;;;;;;;;;;30.87;22.78;99189.03;4960338;29;19974;-95
2022/07/15 09:44:16;;;;;;;;;;;;;;;31.19;22.85;99183.19;4983878;28;19981;-94
2022/07/15 09:46:45;;;;;;;;;;;;;;;31.07;21.77;99178.94;4954632;28;19918;-95
2022/07/15 09:49:12;;;;;;;;;;;;;;;31.14;21.86;99172.53;4983720;28;19918;-95
2022/07/15 09:54:57;;;;;;;;;;;;;;;31.15;22.69;99174.91;4911379;29;19938;-96
2022/07/15 09:57:22;;;;;;;;;;;;;;;31.24;22.21;99170.84;4965333;28;20001;-96
2022/07/15 10:11:32;;;;;;;;;;;;;;;31.52;22.15;99151.03;5079123;23;19935;-96
2022/07/15 10:14:26;;;;;;;;;;;;;;;31.48;21.75;99147.53;5024369;28;19922;-96
2022/07/15 10:16:56;;;;;;;;;;;;;;;31.56;21.62;99148.22;5014653;28;19913;-92
2022/07/15 10:19:27;;;;;;;;;;;;;;;31.60;20.96;99140.63;4982475;28;19923;-94
2022/07/15 10:22:05;;;;;;;;;;;;;;;31.62;21.34;99144.56;5001179;28;19913;-95
2022/07/15 10:24:39;;;;;;;;;;;;;;;31.67;21.45;99131.38;5000654;28;20396;-95
2022/07/15 10:27:26;;;;;;;;;;;;;;;31.76;21.39;99134.47;4977338;28;19914;-94
2022/07/15 10:29:52;;;;;;;;;;;;;;;31.75;21.61;99130.09;4985638;28;19925;-95
2022/07/15 10:32:20;;;;;;;;;;;;;;;31.85;21.58;99128.38;4964767;28;19914;-93
2022/07/15 10:34:46;;;;;;;;;;;;;;;31.99;21.52;99131.00;5003683;28;19913;-94
2022/07/15 10:37:11;;;;;;;;;;;;;;;32.02;21.04;99127.34;4997921;28;19913;-96
2022/07/15 10:39:46;;;;;;;;;;;;;;;32.06;22.17;99124.50;4981625;28;19921;-93
2022/07/15 10:42:15;;;;;;;;;;;;;;;32.12;21.00;99125.63;5017407;28;19924;-96
2022/07/15 10:45:01;;;;;;;;;;;;;;;32.17;21.46;99125.16;5001619;28;20702;-96
2022/07/15 10:47:33;;;;;;;;;;;;;;;32.15;21.02;99122.00;4980670;28;19914;-96
2022/07/15 10:50:12;;;;;;;;;;;;;;;32.19;21.27;99115.16;4964883;28;19914;-96
2022/07/15 10:52:40;;;;;;;;;;;;;;;32.21;19.56;99118.31;4964533;28;19921;-96
2022/07/15 10:57:57;;;;;;;;;;;;;;;32.15;19.82;99114.44;4947643;28;20010;-96
2022/07/15 11:00:55;;;;;;;;;;;;;;;32.12;19.04;99118.03;4964570;28;19928;-96
2022/07/15 11:03:23;;;;;;;;;;;;;;;31.96;19.35;99112.28;4960967;28;19918;-95
2022/07/15 11:05:53;;;;;;;;;;;;;;;32.00;19.98;99119.44;4962615;28;19965;-95
2022/07/15 11:08:31;;;;;;;;;;;;;;;32.05;19.82;99109.03;4978157;28;20339;-94
2022/07/15 11:10:56;;;;;;;;;;;;;;;32.09;18.98;99112.53;4981130;28;19922;-93
2022/07/15 11:13:34;;;;;;;;;;;;;;;31.96;19.32;99110.31;5001667;28;20439;-92
2022/07/15 11:16:00;;;;;;;;;;;;;;;32.10;19.21;99122.47;4984860;28;19963;-94
2022/07/15 11:18:27;;;;;;;;;;;;;;;32.24;18.90;99115.91;4984728;28;20008;-95
2022/07/15 11:20:53;;;;;;;;;;;;;;;32.29;19.05;99105.06;4983682;28;20016;-94
2022/07/15 11:23:27;;;;;;;;;;;;;;;32.41;18.98;99101.66;4998589;28;19968;-95
2022/07/15 11:25:53;;;;;;;;;;;;;;;32.50;18.86;99100.31;4983111;28;19913;-95
2022/07/15 11:28:21;;;;;;;;;;;;;;;32.51;18.83;99097.13;4983350;28;19921;-95
2022/07/15 11:30:53;;;;;;;;;;;;;;;32.49;19.07;99098.75;4985378;28;19914;-95
2022/07/15 11:33:30;;;;;;;;;;;;;;;32.60;18.26;99099.38;5002002;28;20005;-96
2022/07/15 11:35:55;;;;;;;;;;;;;;;32.58;18.42;99091.47;4983325;28;19952;-93
2022/07/15 11:38:27;;;;;;;;;;;;;;;32.64;18.57;99097.31;4997248;28;19924;-93
2022/07/15 11:46:25;;;;;;;;;;;;;;;32.79;18.67;99093.09;5000788;28;19920;-93
2022/07/15 11:48:51;;;;;;;;;;;;;;;32.78;18.69;99091.50;4985678;28;20363;-93
2022/07/15 11:51:16;;;;;;;;;;;;;;;32.81;18.05;99089.88;4984559;28;19949;-93
2022/07/15 11:53:46;;;;;;;;;;;;;;;32.86;18.18;99088.59;4985071;28;19925;-95
2022/07/15 11:56:14;;;;;;;;;;;;;;;32.92;18.54;99086.88;4986990;28;19917;-94
2022/07/15 11:58:49;;;;;;;;;;;;;;;33.09;18.58;99088.56;4985051;28;19970;-93
2022/07/15 12:01:38;;;;;;;;;;;;;;;33.15;18.12;99077.69;4986577;28;20000;-92
2022/07/15 12:04:06;;;;;;;;;;;;;;;33.25;18.59;99079.47;4967070;28;19905;-95
2022/07/15 12:06:34;;;;;;;;;;;;;;;33.36;17.45;99085.63;4999519;28;19913;-96
2022/07/15 12:09:00;;;;;;;;;;;;;;;33.30;17.87;99081.75;4982551;28;19981;-92
2022/07/15 12:11:26;;;;;;;;;;;;;;;33.30;17.27;99092.91;4982513;28;20032;-92
2022/07/15 12:13:53;;;;;;;;;;;;;;;33.20;17.38;99089.16;4987094;28;19952;-90
2022/07/15 12:16:22;;;;;;;;;;;;;;;33.18;17.16;99083.19;5018443;28;20440;-94
2022/07/15 12:18:47;;;;;;;;;;;;;;;33.03;16.88;99074.28;5035535;28;19913;-93
2022/07/15 12:21:43;;;;;;;;;;;;;;;33.24;17.55;99083.47;5031170;28;19956;-94
2022/07/15 12:24:12;;;;;;;;;;;;;;;33.39;17.05;99079.19;5005192;28;19921;-94
2022/07/15 12:26:39;;;;;;;;;;;;;;;33.47;17.47;99068.63;5017954;28;19913;-94
2022/07/15 12:29:05;;;;;;;;;;;;;;;33.63;17.16;99078.31;5019378;28;20316;-94
2022/07/15 12:31:31;;;;;;;;;;;;;;;33.69;17.92;99066.19;5017868;28;19987;-92
2022/07/15 12:33:56;;;;;;;;;;;;;;;33.74;17.69;99076.06;5017447;28;19913;-96
2022/07/15 12:36:26;;;;;;;;;;;;;;;33.84;18.11;99068.66;5018884;28;19920;-93
2022/07/15 12:39:10;;;;;;;;;;;;;;;33.60;16.70;99068.78;5018948;28;19924;-91
2022/07/15 12:41:35;;;;;;;;;;;;;;;33.47;17.84;99068.63;5018277;28;20311;-93
2022/07/15 12:44:01;;;;;;;;;;;;;;;33.29;17.47;99066.22;5017494;28;19927;-96
2022/07/15 12:46:49;;;;;;;;;;;;;;;33.28;18.28;99069.44;5018815;28;19919;-94
2022/07/15 12:49:36;;;;;;;;;;;;;;;33.59;17.85;99075.56;5018605;28;19913;-95
2022/07/15 12:52:16;;;;;;;;;;;;;;;33.75;17.79;99066.47;5018423;28;19917;-95
2022/07/15 12:54:41;;;;;;;;;;;;;;;33.95;17.80;99072.78;5017135;28;19979;-93
2022/07/15 12:57:20;;;;;;;;;;;;;;;33.98;17.66;99077.50;5001300;28;19913;-94
2022/07/15 13:00:07;;;;;;;;;;;;;;;34.00;17.46;99077.06;5018090;28;20382;-94
2022/07/15 13:02:37;;;;;;;;;;;;;;;34.06;17.53;99068.94;5018265;28;19921;-96
2022/07/15 13:05:02;;;;;;;;;;;;;;;34.28;17.67;99072.03;5032173;28;19913;-94
2022/07/15 13:07:31;;;;;;;;;;;;;;;34.30;17.58;99077.97;5035636;28;19913;-95
2022/07/15 13:09:56;;;;;;;;;;;;;;;34.08;17.61;99074.88;5019060;28;19913;-93
2022/07/15 13:12:22;;;;;;;;;;;;;;;33.84;18.31;99071.44;5015551;28;19997;-95
2022/07/15 13:14:47;;;;;;;;;;;;;;;33.48;18.38;99070.22;5018652;28;19914;-95
2022/07/15 13:17:12;;;;;;;;;;;;;;;33.53;18.16;99069.69;5001034;28;19914;-95
2022/07/15 13:19:38;;;;;;;;;;;;;;;33.68;17.95;99072.19;5002387;28;19913;-94
2022/07/15 13:22:03;;;;;;;;;;;;;;;33.97;17.36;99070.34;4997244;28;19913;-94
2022/07/15 13:24:28;;;;;;;;;;;;;;;34.05;18.70;99070.16;4999990;28;20413;-93
2022/07/15 13:26:54;;;;;;;;;;;;;;;34.24;17.88;99071.31;4998639;28;19956;-92
2022/07/15 13:29:19;;;;;;;;;;;;;;;34.49;16.91;99063.09;5021171;28;19913;-93
2022/07/15 13:31:55;;;;;;;;;;;;;;;;;;;;;
2022/07/15 13:34:20;;;;;;;;;;;;;;;34.68;16.57;99061.44;5019155;28;20005;-93
2022/07/15 13:36:46;;;;;;;;;;;;;;;34.87;15.75;99061.75;5003721;28;20364;-94
2022/07/15 13:39:11;;;;;;;;;;;;;;;34.98;15.96;99063.00;5003204;28;19914;-92
2022/07/15 13:41:36;;;;;;;;;;;;;;;35.18;15.41;99054.47;5000714;28;19920;-91